Time;durP1;ratioP1;P1;durP2;ratioP2;P2;SDS_P1;SDS_P2;PMS_P1;PMS_P2;Temp;Humidity;BMP_temperature;BMP_pressure;BME280_temperature;BME280_humidity;BME280_pressure;Samples;Min_cycle;Max_cycle;Signal;HPM_P1;HPM_P2
2021/12/22 00:02:14;;;;;;;23.20;18.53;;;0.50;99.90;;;;;;5047536;28;21177;-78
2021/12/22 00:04:44;;;;;;;22.60;18.80;;;0.50;99.90;;;;;;5050864;28;20244;-78
2021/12/22 00:07:11;;;;;;;20.13;17.87;;;0.60;99.90;;;;;;5071233;28;20203;-78
2021/12/22 00:09:37;;;;;;;21.97;17.50;;;0.50;99.90;;;;;;5045692;28;20606;-78
2021/12/22 00:12:03;;;;;;;21.97;17.27;;;0.60;99.90;;;;;;5046366;28;20697;-78
2021/12/22 00:14:29;;;;;;;20.97;15.90;;;0.60;99.90;;;;;;5047239;28;20199;-78
2021/12/22 00:16:54;;;;;;;20.40;16.40;;;0.50;99.90;;;;;;5047823;28;21043;-78
2021/12/22 00:19:20;;;;;;;23.13;16.37;;;0.50;99.90;;;;;;5050633;28;20183;-78
2021/12/22 00:21:50;;;;;;;19.90;16.67;;;0.50;99.90;;;;;;5064498;28;20195;-77
2021/12/22 00:24:16;;;;;;;23.03;16.10;;;0.50;99.90;;;;;;5066023;28;20600;-78
2021/12/22 00:26:41;;;;;;;22.50;16.97;;;0.50;99.90;;;;;;5064437;28;20651;-78
2021/12/22 00:29:08;;;;;;;21.03;17.00;;;0.50;99.90;;;;;;5056780;28;20298;-78
2021/12/22 00:31:41;;;;;;;21.40;17.00;;;0.40;99.90;;;;;;5053395;28;20294;-77
2021/12/22 00:34:15;;;;;;;22.27;17.20;;;0.40;99.90;;;;;;5067846;28;20925;-78
2021/12/22 00:36:41;;;;;;;22.90;17.80;;;0.40;99.90;;;;;;5045025;28;20679;-78
2021/12/22 00:39:06;;;;;;;20.43;15.47;;;0.40;99.90;;;;;;5053534;28;20618;-78
2021/12/22 00:41:34;;;;;;;23.57;16.30;;;0.40;99.90;;;;;;5051505;28;20223;-78
2021/12/22 00:44:00;;;;;;;21.40;16.80;;;0.40;99.90;;;;;;5065056;28;20234;-79
2021/12/22 00:46:25;;;;;;;20.10;16.20;;;0.40;99.90;;;;;;5071754;28;20622;-78
2021/12/22 00:48:53;;;;;;;19.40;16.00;;;0.30;99.90;;;;;;5055428;28;20208;-78
2021/12/22 00:51:21;;;;;;;19.87;15.80;;;0.30;99.90;;;;;;5054845;28;20276;-78
2021/12/22 00:53:47;;;;;;;24.13;16.40;;;0.40;99.90;;;;;;5052536;28;20701;-79
2021/12/22 00:56:12;;;;;;;19.00;15.03;;;0.30;99.90;;;;;;5045892;28;20641;-78
2021/12/22 00:58:38;;;;;;;21.80;16.70;;;0.30;99.90;;;;;;5056507;28;20230;-78
2021/12/22 01:01:04;;;;;;;20.67;14.93;;;0.20;99.90;;;;;;5054490;28;20625;-78
2021/12/22 01:03:35;;;;;;;19.87;15.30;;;0.20;99.90;;;;;;5064640;28;20609;-77
2021/12/22 01:06:04;;;;;;;19.07;14.70;;;0.20;99.90;;;;;;5050921;28;20651;-77
2021/12/22 01:08:30;;;;;;;18.73;15.03;;;0.40;99.90;;;;;;5054108;28;20654;-78
2021/12/22 01:10:57;;;;;;;21.80;16.93;;;0.10;99.90;;;;;;5068702;28;20663;-77
2021/12/22 01:13:22;;;;;;;19.70;14.67;;;0.10;99.90;;;;;;5054637;28;20704;-77
2021/12/22 01:15:48;;;;;;;19.27;14.97;;;0.10;99.90;;;;;;5051507;28;20626;-78
2021/12/22 01:18:25;;;;;;;29.43;15.33;;;0.10;99.90;;;;;;5068107;28;20298;-78
2021/12/22 01:23:20;;;;;;;21.60;15.73;;;0.00;99.90;;;;;;5065533;28;21145;-78
2021/12/22 01:25:49;;;;;;;20.83;14.70;;;0.00;99.90;;;;;;5070033;28;20616;-78
2021/12/22 01:28:16;;;;;;;19.40;15.03;;;0.00;99.90;;;;;;5052378;28;20665;-78
2021/12/22 01:30:45;;;;;;;20.27;15.83;;;-0.10;99.90;;;;;;5062822;28;20646;-78
2021/12/22 01:33:14;;;;;;;17.50;14.90;;;-0.10;99.90;;;;;;5062376;28;21192;-78
2021/12/22 01:35:40;;;;;;;18.73;14.77;;;-0.10;99.90;;;;;;5048443;28;20640;-78
2021/12/22 01:38:10;;;;;;;24.27;15.03;;;-0.10;99.90;;;;;;5057126;28;20794;-78
2021/12/22 01:40:40;;;;;;;21.90;15.47;;;-0.10;99.90;;;;;;5068314;28;20808;-78
2021/12/22 01:43:06;;;;;;;21.83;14.47;;;-0.10;99.90;;;;;;5047033;28;20602;-78
2021/12/22 01:46:32;;;;;;;18.20;14.83;;;-0.10;99.90;;;;;;5050222;28;20709;-78
2021/12/22 01:51:34;;;;;;;18.20;13.77;;;-0.20;99.90;;;;;;5063309;28;21044;-78
2021/12/22 01:54:03;;;;;;;19.77;15.00;;;-0.20;99.90;;;;;;5048318;28;20605;-79
2021/12/22 01:56:32;;;;;;;20.30;13.83;;;-0.20;99.90;;;;;;5051504;28;20609;-78
2021/12/22 01:59:01;;;;;;;19.70;14.87;;;-0.20;99.90;;;;;;5069620;28;20698;-77
2021/12/22 02:01:33;;;;;;;20.47;14.37;;;-0.30;99.90;;;;;;5066097;28;20694;-78
2021/12/22 02:03:59;;;;;;;20.57;14.87;;;-0.30;99.90;;;;;;5053936;28;20632;-79
2021/12/22 02:06:25;;;;;;;20.40;15.63;;;-0.30;99.90;;;;;;5053146;28;20692;-79
2021/12/22 02:08:52;;;;;;;18.60;14.00;;;-0.30;99.90;;;;;;5073430;28;20737;-80
2021/12/22 02:11:22;;;;;;;18.70;14.07;;;-0.30;99.90;;;;;;5054073;28;20594;-78
2021/12/22 02:13:54;;;;;;;18.40;14.63;;;-0.30;99.90;;;;;;5048789;28;20692;-78
2021/12/22 02:16:26;;;;;;;19.37;14.53;;;-0.30;99.90;;;;;;5046732;28;20630;-78
2021/12/22 02:18:53;;;;;;;19.27;14.80;;;-0.40;99.90;;;;;;5071366;28;21439;-78
2021/12/22 02:21:21;;;;;;;19.33;13.87;;;-0.40;99.90;;;;;;5049653;28;21038;-78
2021/12/22 02:23:47;;;;;;;17.67;13.90;;;-0.40;99.90;;;;;;5063933;28;20609;-78
2021/12/22 02:26:18;;;;;;;18.67;13.73;;;-0.40;99.90;;;;;;5049339;28;21184;-78
2021/12/22 02:28:53;;;;;;;19.20;13.00;;;-0.40;99.90;;;;;;5047814;28;20231;-78
2021/12/22 02:31:20;;;;;;;17.70;12.50;;;-0.50;99.90;;;;;;5048044;28;21036;-78
2021/12/22 02:33:50;;;;;;;15.47;12.70;;;-0.50;99.90;;;;;;5054424;28;20630;-79
2021/12/22 02:38:45;;;;;;;17.80;13.37;;;-0.50;99.90;;;;;;5065235;28;20740;-78
2021/12/22 02:41:16;;;;;;;18.43;13.13;;;-0.50;99.90;;;;;;5047783;28;20653;-78
2021/12/22 02:43:47;;;;;;;14.43;12.37;;;-0.50;99.90;;;;;;5049720;28;20652;-78
2021/12/22 02:46:14;;;;;;;17.00;12.60;;;-0.50;99.90;;;;;;5070616;28;20579;-78
2021/12/22 02:48:43;;;;;;;16.57;12.27;;;-0.50;99.90;;;;;;5043045;28;20741;-78
2021/12/22 02:51:11;;;;;;;18.40;12.13;;;-0.50;99.90;;;;;;5062909;28;20665;-78
2021/12/22 02:53:42;;;;;;;17.80;12.67;;;-0.50;99.90;;;;;;5049416;28;20659;-78
2021/12/22 02:56:27;;;;;;;15.90;12.53;;;-0.60;99.90;;;;;;5046861;28;20998;-78
2021/12/22 03:04:22;;;;;;;17.93;13.83;;;-0.60;99.90;;;;;;5069395;28;20608;-78
2021/12/22 03:06:59;;;;;;;15.77;11.60;;;-0.60;99.90;;;;;;5040998;28;20636;-77
2021/12/22 03:09:35;;;;;;;17.00;12.43;;;-0.70;99.90;;;;;;5063451;28;20661;-78
2021/12/22 03:12:06;;;;;;;17.80;12.80;;;-0.70;99.90;;;;;;5067878;28;20897;-78
2021/12/22 03:14:32;;;;;;;14.80;11.20;;;-0.60;99.90;;;;;;5063115;28;20650;-78
2021/12/22 03:16:58;;;;;;;15.57;11.80;;;-0.70;99.90;;;;;;5052463;28;20630;-78
2021/12/22 03:19:27;;;;;;;13.43;10.50;;;-0.70;99.90;;;;;;5045538;28;20625;-78
2021/12/22 03:21:59;;;;;;;16.43;12.00;;;-0.70;99.90;;;;;;5063818;28;20606;-78
2021/12/22 03:24:28;;;;;;;15.90;10.87;;;-0.70;99.90;;;;;;5064815;28;20597;-78
2021/12/22 03:26:54;;;;;;;16.73;12.50;;;-0.80;99.90;;;;;;5050048;28;20691;-78
2021/12/22 03:29:20;;;;;;;15.60;12.33;;;-0.80;99.90;;;;;;5061585;28;20708;-78
2021/12/22 03:31:47;;;;;;;14.20;10.67;;;-0.80;99.90;;;;;;5049645;28;20602;-78
2021/12/22 03:34:14;;;;;;;18.00;11.37;;;-0.80;99.90;;;;;;5050193;28;20184;-78
2021/12/22 03:36:41;;;;;;;15.50;11.37;;;-0.80;99.90;;;;;;5061992;28;20622;-78
2021/12/22 03:39:08;;;;;;;14.90;10.53;;;-0.90;99.90;;;;;;5065412;28;20648;-77
2021/12/22 03:41:37;;;;;;;16.00;12.10;;;-0.90;99.90;;;;;;5066306;28;20633;-78
2021/12/22 03:44:09;;;;;;;14.17;11.00;;;-0.90;99.90;;;;;;5049459;28;20611;-78
2021/12/22 03:46:38;;;;;;;13.43;10.20;;;-1.00;99.90;;;;;;5049259;28;20679;-78
2021/12/22 03:49:08;;;;;;;16.10;11.43;;;-1.00;99.90;;;;;;5044828;28;20673;-79
2021/12/22 03:51:35;;;;;;;17.13;11.53;;;-1.00;99.90;;;;;;5046297;28;20745;-78
2021/12/22 03:54:01;;;;;;;11.00;9.80;;;-1.00;99.90;;;;;;5052256;28;20634;-78
2021/12/22 03:56:27;;;;;;;14.20;10.93;;;-1.10;99.90;;;;;;5051023;28;20622;-78
2021/12/22 03:58:53;;;;;;;16.93;11.10;;;-0.90;99.90;;;;;;5068657;28;20226;-78
2021/12/22 04:01:18;;;;;;;16.10;11.30;;;-1.00;99.90;;;;;;5051005;28;20769;-78
2021/12/22 04:03:47;;;;;;;14.70;10.50;;;-1.10;99.90;;;;;;5048547;28;20755;-78
2021/12/22 04:06:13;;;;;;;15.17;11.60;;;-1.10;99.90;;;;;;5044696;28;20195;-78
2021/12/22 04:08:39;;;;;;;15.43;11.00;;;-1.10;99.90;;;;;;5064390;28;21239;-78
2021/12/22 04:11:04;;;;;;;13.70;10.73;;;-1.10;99.90;;;;;;5062997;28;20220;-78
2021/12/22 04:13:30;;;;;;;15.70;11.37;;;-1.10;99.90;;;;;;5049962;28;20208;-78
2021/12/22 04:16:00;;;;;;;13.97;10.40;;;-1.20;99.90;;;;;;5054980;28;20191;-78
2021/12/22 04:18:26;;;;;;;15.40;11.10;;;-1.20;99.90;;;;;;5045467;28;20685;-78
2021/12/22 04:20:51;;;;;;;17.90;12.10;;;-1.20;99.90;;;;;;5042747;28;20642;-78
2021/12/22 04:23:25;;;;;;;15.53;10.63;;;-1.20;99.90;;;;;;5048585;28;20649;-77
2021/12/22 04:25:51;;;;;;;14.50;9.83;;;-1.20;99.90;;;;;;5062631;28;20233;-78
2021/12/22 04:28:17;;;;;;;16.03;10.47;;;-1.30;99.90;;;;;;5063533;28;20812;-78
2021/12/22 04:30:48;;;;;;;18.13;11.57;;;-1.30;99.90;;;;;;5044830;28;20327;-78
2021/12/22 04:33:14;;;;;;;14.13;10.50;;;-1.30;99.90;;;;;;5043375;28;20184;-78
2021/12/22 04:35:40;;;;;;;14.70;11.10;;;-1.30;99.90;;;;;;5065758;28;21068;-78
2021/12/22 04:38:06;;;;;;;15.20;10.87;;;-1.30;99.90;;;;;;5051950;28;20689;-77
2021/12/22 04:40:32;;;;;;;17.00;10.87;;;-1.40;99.90;;;;;;5062360;28;20663;-78
2021/12/22 04:42:58;;;;;;;17.77;10.50;;;-1.40;99.90;;;;;;5046452;28;20237;-77
2021/12/22 04:45:23;;;;;;;15.83;10.73;;;-1.20;99.90;;;;;;5067458;28;20191;-78
2021/12/22 04:47:51;;;;;;;16.13;10.90;;;-1.40;99.90;;;;;;5044425;28;20314;-77
2021/12/22 04:50:19;;;;;;;13.77;9.93;;;-1.40;99.90;;;;;;5047366;28;20691;-79
2021/12/22 04:52:53;;;;;;;16.57;10.87;;;-1.40;99.90;;;;;;5059577;28;20611;-77
2021/12/22 04:55:19;;;;;;;12.70;10.07;;;-1.50;99.90;;;;;;5043394;28;20633;-78
2021/12/22 04:57:45;;;;;;;13.47;10.07;;;-1.50;99.90;;;;;;5045172;28;20642;-78
2021/12/22 05:00:22;;;;;;;17.87;10.47;;;-1.50;99.90;;;;;;5042055;28;20690;-77
2021/12/22 05:02:49;;;;;;;12.87;10.20;;;-1.50;99.90;;;;;;5062057;28;20736;-77
2021/12/22 05:05:16;;;;;;;15.00;10.47;;;-1.50;99.90;;;;;;5064579;28;20606;-77
2021/12/22 05:07:43;;;;;;;14.87;9.77;;;-1.50;99.90;;;;;;5048494;28;20662;-78
2021/12/22 05:10:12;;;;;;;15.60;10.47;;;-1.50;99.90;;;;;;5069292;28;20752;-77
2021/12/22 05:12:40;;;;;;;13.10;9.37;;;-1.50;99.90;;;;;;5071005;28;21168;-77
2021/12/22 05:15:06;;;;;;;12.43;9.83;;;-1.50;99.90;;;;;;5072375;28;20639;-77
2021/12/22 05:18:00;;;;;;;16.03;10.20;;;-1.50;99.90;;;;;;5047942;28;20646;-79
2021/12/22 05:20:26;;;;;;;13.87;9.67;;;-1.50;99.90;;;;;;5073045;28;20645;-78
2021/12/22 05:22:52;;;;;;;15.57;9.77;;;-1.60;99.90;;;;;;5054661;28;20632;-77
2021/12/22 05:25:18;;;;;;;19.40;10.67;;;-1.60;99.90;;;;;;5068545;28;20602;-78
2021/12/22 05:27:44;;;;;;;15.57;10.80;;;-1.70;99.90;;;;;;5069169;28;21021;-78
2021/12/22 05:30:12;;;;;;;13.10;9.53;;;-1.70;99.90;;;;;;5072554;28;20227;-77
2021/12/22 05:32:41;;;;;;;17.13;10.40;;;-1.70;99.90;;;;;;5066988;28;20682;-78
2021/12/22 05:35:11;;;;;;;15.23;10.40;;;-1.70;99.90;;;;;;5044952;28;20693;-78
2021/12/22 05:37:37;;;;;;;13.80;10.30;;;-1.70;99.90;;;;;;5049193;28;20688;-78
2021/12/22 05:40:06;;;;;;;16.70;10.67;;;-1.70;99.90;;;;;;5066230;28;20982;-78
2021/12/22 05:42:32;;;;;;;16.73;11.13;;;-1.70;99.90;;;;;;5066199;28;20614;-78
2021/12/22 05:45:00;;;;;;;16.23;10.63;;;-1.70;99.90;;;;;;5064737;28;20610;-77
2021/12/22 05:47:25;;;;;;;16.47;10.77;;;-1.70;99.90;;;;;;5065784;28;20695;-77
2021/12/22 05:49:51;;;;;;;16.50;10.03;;;-1.70;99.90;;;;;;5054201;28;20636;-78
2021/12/22 05:52:17;;;;;;;18.10;10.90;;;-1.70;99.90;;;;;;5047295;28;20667;-77
2021/12/22 05:54:42;;;;;;;13.80;9.60;;;-1.70;99.90;;;;;;5048901;28;20180;-77
2021/12/22 05:57:08;;;;;;;15.33;10.40;;;-1.70;99.90;;;;;;5061962;28;20207;-78
2021/12/22 05:59:33;;;;;;;15.73;10.93;;;-1.70;99.90;;;;;;5062854;28;20209;-77
2021/12/22 06:01:59;;;;;;;15.60;10.90;;;-1.70;99.90;;;;;;5054812;28;20278;-77
2021/12/22 06:04:33;;;;;;;17.60;10.40;;;-1.70;99.90;;;;;;5069875;28;20186;-78
2021/12/22 06:07:04;;;;;;;15.60;10.57;;;-1.80;99.90;;;;;;5065897;28;20321;-78
2021/12/22 06:09:32;;;;;;;16.13;10.37;;;-1.70;99.90;;;;;;5064660;28;20601;-77
2021/12/22 06:11:58;;;;;;;16.67;9.67;;;-1.70;99.90;;;;;;5067853;28;20630;-78
2021/12/22 06:14:24;;;;;;;18.43;11.60;;;-1.70;99.90;;;;;;5050037;28;20610;-78
2021/12/22 06:16:50;;;;;;;15.87;10.13;;;-1.80;99.90;;;;;;5047870;28;20184;-78
2021/12/22 06:19:15;;;;;;;15.97;10.37;;;-1.60;99.90;;;;;;5065199;28;20637;-78
2021/12/22 06:21:41;;;;;;;17.00;10.53;;;-1.80;99.90;;;;;;5052348;28;20207;-78
2021/12/22 06:24:08;;;;;;;14.33;9.93;;;-1.80;99.90;;;;;;5047451;28;20184;-77
2021/12/22 06:26:33;;;;;;;15.40;10.50;;;-1.80;99.90;;;;;;5045291;28;20605;-78
2021/12/22 06:28:59;;;;;;;14.73;9.90;;;-1.70;99.90;;;;;;5062656;28;21357;-78
2021/12/22 06:31:25;;;;;;;19.40;10.47;;;-1.80;99.90;;;;;;5061408;28;20555;-78
2021/12/22 06:33:50;;;;;;;16.20;10.60;;;-1.80;99.90;;;;;;5054017;28;21295;-80
2021/12/22 06:36:20;;;;;;;16.77;12.00;;;-1.80;99.90;;;;;;5054371;28;20740;-78
2021/12/22 06:38:46;;;;;;;17.00;10.90;;;-1.80;99.90;;;;;;5065567;28;20670;-78
2021/12/22 06:41:11;;;;;;;15.60;9.77;;;-1.80;99.90;;;;;;5046023;28;20649;-78
2021/12/22 06:43:37;;;;;;;14.87;10.10;;;-1.80;99.90;;;;;;5066955;28;20194;-80
2021/12/22 06:46:03;;;;;;;14.60;10.33;;;-1.70;99.90;;;;;;5077484;28;20192;-78
2021/12/22 06:48:28;;;;;;;16.23;10.30;;;-1.80;99.90;;;;;;5080449;28;20220;-80
2021/12/22 06:50:54;;;;;;;15.43;10.07;;;-1.80;99.90;;;;;;5062024;28;20710;-78
2021/12/22 06:53:19;;;;;;;15.27;9.60;;;-1.80;99.90;;;;;;5050161;28;20648;-78
2021/12/22 06:55:45;;;;;;;18.50;10.13;;;-1.80;99.90;;;;;;5067870;28;20203;-78
2021/12/22 06:58:11;;;;;;;17.57;11.07;;;-1.90;99.90;;;;;;5068547;28;20263;-78
2021/12/22 07:00:37;;;;;;;18.80;11.03;;;-1.90;99.90;;;;;;5046496;28;20227;-78
2021/12/22 07:03:05;;;;;;;15.90;9.70;;;-1.90;99.90;;;;;;5067724;28;21002;-78
2021/12/22 07:05:31;;;;;;;16.23;10.20;;;-2.00;99.90;;;;;;5061798;28;20196;-78
2021/12/22 07:07:57;;;;;;;17.10;10.53;;;-1.90;99.90;;;;;;5045912;28;21262;-78
2021/12/22 07:10:23;;;;;;;14.60;10.03;;;-1.90;99.90;;;;;;5065615;28;20690;-78
2021/12/22 07:12:48;;;;;;;15.03;9.80;;;-1.80;99.90;;;;;;5049393;28;20620;-78
2021/12/22 07:15:17;;;;;;;14.93;9.30;;;-1.90;99.90;;;;;;5047202;28;20188;-78
2021/12/22 07:17:44;;;;;;;17.13;9.97;;;-2.00;99.90;;;;;;5046430;28;20208;-78
2021/12/22 07:20:10;;;;;;;18.63;10.70;;;-2.00;99.90;;;;;;5047646;28;20658;-78
2021/12/22 07:22:36;;;;;;;17.07;9.97;;;-2.00;99.90;;;;;;5046857;28;20655;-78
2021/12/22 07:25:06;;;;;;;21.33;10.43;;;-2.00;99.90;;;;;;5064606;28;20606;-78
2021/12/22 07:27:32;;;;;;;14.90;9.13;;;-2.00;99.90;;;;;;5065888;28;21117;-78
2021/12/22 07:29:57;;;;;;;17.63;10.30;;;-2.10;99.90;;;;;;5044964;28;20677;-78
2021/12/22 07:32:25;;;;;;;16.20;10.73;;;-2.00;99.90;;;;;;5047589;28;20191;-78
2021/12/22 07:35:06;;;;;;;14.43;9.50;;;-2.00;99.90;;;;;;5047210;28;20628;-78
2021/12/22 07:37:40;;;;;;;14.57;9.73;;;-2.10;99.90;;;;;;5061338;28;21203;-78
2021/12/22 07:40:12;;;;;;;17.47;10.93;;;-2.00;99.90;;;;;;5066663;28;20625;-77
2021/12/22 07:42:37;;;;;;;18.93;10.33;;;-2.10;99.90;;;;;;5066929;28;21033;-78
2021/12/22 07:45:05;;;;;;;15.13;9.23;;;-2.10;99.90;;;;;;5045647;28;20609;-78
2021/12/22 07:47:34;;;;;;;18.10;10.17;;;-2.10;99.90;;;;;;5049784;28;20729;-78
2021/12/22 07:50:00;;;;;;;17.97;9.97;;;-2.10;99.90;;;;;;5045687;28;21009;-77
2021/12/22 07:52:27;;;;;;;19.57;11.23;;;-2.10;99.90;;;;;;5064205;28;20693;-77
2021/12/22 07:54:56;;;;;;;19.80;11.47;;;-2.00;99.90;;;;;;5045858;28;20687;-77
2021/12/22 07:57:24;;;;;;;23.10;12.37;;;-2.20;99.90;;;;;;5058849;28;20646;-78
2021/12/22 07:59:50;;;;;;;23.20;11.87;;;-2.20;99.90;;;;;;5061137;28;20729;-77
2021/12/22 08:02:15;;;;;;;20.70;11.43;;;-2.20;99.90;;;;;;5042858;28;20689;-78
2021/12/22 08:04:41;;;;;;;20.57;11.90;;;-2.20;99.90;;;;;;5062326;28;20184;-77
2021/12/22 08:07:10;;;;;;;25.23;13.23;;;-2.20;99.90;;;;;;5063315;28;20281;-78
2021/12/22 08:09:36;;;;;;;23.73;11.70;;;-2.20;99.90;;;;;;5046508;28;20614;-78
2021/12/22 08:12:05;;;;;;;22.67;11.97;;;-2.20;99.90;;;;;;5045416;28;20629;-77
2021/12/22 08:14:35;;;;;;;21.43;12.47;;;-2.20;99.90;;;;;;5041311;28;21040;-78
2021/12/22 08:17:00;;;;;;;20.30;12.47;;;-2.20;99.90;;;;;;5065329;28;20616;-77
2021/12/22 08:19:26;;;;;;;23.17;13.83;;;-2.10;99.90;;;;;;5045779;28;20617;-77
2021/12/22 08:21:52;;;;;;;23.67;12.83;;;-2.10;99.90;;;;;;5042874;28;20548;-77
2021/12/22 08:24:18;;;;;;;22.40;13.00;;;-2.00;99.90;;;;;;5047286;28;20188;-77
2021/12/22 08:26:43;;;;;;;25.93;13.17;;;-2.00;99.90;;;;;;5062290;28;20618;-78
2021/12/22 08:29:09;;;;;;;25.40;13.80;;;-2.00;99.90;;;;;;5062098;28;20265;-77
2021/12/22 08:31:35;;;;;;;25.13;13.10;;;-1.90;99.90;;;;;;5063188;28;20215;-78
2021/12/22 08:34:01;;;;;;;24.33;12.13;;;-2.00;99.90;;;;;;5061263;28;21057;-77
2021/12/22 08:39:13;;;;;;;21.63;13.00;;;-2.00;99.90;;;;;;5063133;28;20559;-77
2021/12/22 08:41:40;;;;;;;21.30;12.20;;;-2.00;99.90;;;;;;5042746;28;20653;-78
2021/12/22 08:44:10;;;;;;;26.60;13.20;;;-2.00;99.90;;;;;;5048962;28;20625;-77
2021/12/22 08:46:39;;;;;;;23.73;11.87;;;-1.90;99.90;;;;;;5066053;28;20609;-78
2021/12/22 08:49:06;;;;;;;25.80;12.33;;;-1.90;99.90;;;;;;5049981;28;20657;-78
2021/12/22 08:51:33;;;;;;;25.33;14.50;;;-1.60;99.90;;;;;;5047370;28;20629;-78
2021/12/22 08:54:00;;;;;;;25.43;13.70;;;-1.80;99.90;;;;;;5047730;28;20664;-77
2021/12/22 08:56:27;;;;;;;28.03;13.60;;;-1.80;99.90;;;;;;5048071;28;20653;-78
2021/12/22 08:58:54;;;;;;;28.57;15.20;;;-1.60;99.90;;;;;;5066733;28;20688;-78
2021/12/22 09:01:20;;;;;;;26.80;14.60;;;-1.80;99.90;;;;;;5048842;28;20641;-77
2021/12/22 09:03:46;;;;;;;31.83;14.90;;;-1.70;99.90;;;;;;5048072;28;20722;-77
2021/12/22 09:06:13;;;;;;;29.13;14.70;;;-1.70;99.90;;;;;;5070258;28;20657;-77
2021/12/22 09:08:41;;;;;;;28.57;15.17;;;-1.70;99.90;;;;;;5049007;28;21251;-77
2021/12/22 09:11:08;;;;;;;30.47;14.57;;;-1.80;99.90;;;;;;5065537;28;20634;-78
2021/12/22 09:13:36;;;;;;;29.73;14.60;;;-1.80;99.90;;;;;;5066966;28;20615;-78
2021/12/22 09:16:02;;;;;;;25.90;13.27;;;-1.80;99.90;;;;;;5068855;28;20613;-77
2021/12/22 09:18:28;;;;;;;27.80;15.20;;;-1.80;99.90;;;;;;5056438;28;20722;-77
2021/12/22 09:20:54;;;;;;;27.67;14.50;;;-1.70;99.90;;;;;;5049859;28;20637;-77
2021/12/22 09:23:19;;;;;;;27.00;15.63;;;-1.70;99.90;;;;;;5049843;28;20675;-77
2021/12/22 09:25:45;;;;;;;27.13;13.57;;;-1.70;99.90;;;;;;5049635;28;20244;-77
2021/12/22 09:28:14;;;;;;;29.87;13.13;;;-1.70;99.90;;;;;;5068024;28;20215;-77
2021/12/22 09:30:41;;;;;;;27.47;14.70;;;-1.70;99.90;;;;;;5048173;28;20223;-77
2021/12/22 09:33:11;;;;;;;26.20;13.87;;;-1.80;99.90;;;;;;5067020;28;20661;-78
2021/12/22 09:35:39;;;;;;;29.13;14.50;;;-1.80;99.90;;;;;;5066244;28;20595;-78
2021/12/22 09:38:07;;;;;;;26.70;12.93;;;-1.80;99.90;;;;;;5071008;28;21203;-78
2021/12/22 09:40:34;;;;;;;29.73;14.60;;;-1.80;99.90;;;;;;5068938;28;20672;-78
2021/12/22 09:42:59;;;;;;;28.60;14.00;;;-1.80;99.90;;;;;;5043076;28;21279;-77
2021/12/22 09:45:26;;;;;;;24.60;12.90;;;-1.70;99.90;;;;;;5050408;28;20714;-77
2021/12/22 09:50:48;;;;;;;26.30;14.33;;;-1.70;99.90;;;;;;5068326;28;20644;-78
2021/12/22 09:53:18;;;;;;;29.97;14.40;;;-1.60;99.90;;;;;;5070114;28;21107;-77
2021/12/22 09:55:45;;;;;;;27.00;13.97;;;-1.50;99.90;;;;;;5048970;28;20693;-77
2021/12/22 09:58:11;;;;;;;30.17;13.70;;;-1.40;99.90;;;;;;5053368;28;20684;-78
2021/12/22 10:00:41;;;;;;;28.43;13.20;;;-1.40;99.90;;;;;;5071471;28;21184;-77
2021/12/22 10:03:10;;;;;;;20.50;12.13;;;-1.40;99.90;;;;;;5047395;28;20183;-77
2021/12/22 10:05:38;;;;;;;21.40;11.90;;;-1.30;99.90;;;;;;5063324;28;20609;-77
2021/12/22 10:08:16;;;;;;;22.97;12.53;;;-1.30;99.90;;;;;;5053621;28;20657;-77
2021/12/22 10:10:45;;;;;;;22.13;10.97;;;-1.20;99.90;;;;;;5048399;28;20641;-77
2021/12/22 10:13:14;;;;;;;20.53;11.40;;;-1.20;99.90;;;;;;5050113;28;20719;-77
2021/12/22 10:15:40;;;;;;;18.90;11.30;;;-1.10;99.90;;;;;;5049859;28;20606;-77
2021/12/22 10:18:21;;;;;;;21.93;11.47;;;-1.10;99.90;;;;;;5067674;28;20782;-79
2021/12/22 10:20:51;;;;;;;20.60;11.40;;;-1.00;99.90;;;;;;5054184;28;20649;-79
2021/12/22 10:23:29;;;;;;;24.27;12.70;;;-0.90;99.90;;;;;;5067515;28;20613;-77
2021/12/22 10:26:00;;;;;;;24.67;13.03;;;-0.90;99.90;;;;;;5046609;28;20637;-78
2021/12/22 10:28:28;;;;;;;20.47;11.73;;;-0.90;99.90;;;;;;5047981;28;20664;-77
2021/12/22 10:30:58;;;;;;;20.03;11.53;;;-0.90;99.90;;;;;;5052492;28;20645;-77
2021/12/22 10:33:30;;;;;;;22.30;12.70;;;-0.90;99.90;;;;;;5049113;28;21175;-78
2021/12/22 10:36:02;;;;;;;19.47;12.40;;;-0.90;99.90;;;;;;5050705;28;20613;-77
2021/12/22 10:38:31;;;;;;;24.00;14.07;;;-0.80;99.90;;;;;;5066469;28;20634;-77
2021/12/22 10:41:02;;;;;;;26.37;13.13;;;-0.80;99.90;;;;;;5049389;28;20646;-77
2021/12/22 10:43:30;;;;;;;26.43;13.73;;;-0.70;99.90;;;;;;5067586;28;20988;-77
2021/12/22 10:46:00;;;;;;;23.40;13.67;;;-0.70;99.90;;;;;;5054020;28;20622;-77
2021/12/22 10:51:26;;;;;;;26.07;12.23;;;-0.70;99.90;;;;;;5064743;28;21039;-77
2021/12/22 10:53:53;;;;;;;23.07;11.83;;;-0.60;99.90;;;;;;5049486;28;20653;-78
2021/12/22 10:56:40;;;;;;;27.57;14.23;;;-0.50;99.90;;;;;;5069961;28;20587;-77
2021/12/22 10:59:07;;;;;;;25.40;14.10;;;-0.50;99.90;;;;;;5045194;28;21283;-78
2021/12/22 11:02:10;;;;;;;26.17;13.90;;;-0.40;99.90;;;;;;5065950;28;20690;-79
2021/12/22 11:04:42;;;;;;;24.33;13.50;;;-0.40;99.90;;;;;;5050972;28;20988;-78
2021/12/22 11:07:20;;;;;;;24.17;13.07;;;-0.40;99.90;;;;;;5049810;28;21021;-78
2021/12/22 11:09:45;;;;;;;24.80;13.50;;;-0.30;99.90;;;;;;5048755;28;20720;-78
2021/12/22 11:12:13;;;;;;;24.60;13.00;;;-0.30;99.90;;;;;;5045447;28;20721;-78
2021/12/22 11:14:41;;;;;;;26.83;14.43;;;-0.10;99.90;;;;;;5045211;28;20214;-78
2021/12/22 11:17:10;;;;;;;23.83;12.90;;;-0.10;99.90;;;;;;5051183;28;20734;-78
2021/12/22 11:20:02;;;;;;;25.83;14.77;;;0.00;99.90;;;;;;5048973;28;20701;-78
2021/12/22 11:23:10;;;;;;;23.23;13.10;;;0.10;99.90;;;;;;5047736;28;21205;-78
2021/12/22 11:25:32;;;;;;;25.60;13.70;;;0.00;99.90;;;;;;5063861;28;20946;-78
2021/12/22 11:27:59;;;;;;;23.93;14.63;;;0.10;99.90;;;;;;5049848;28;20654;-78
2021/12/22 11:30:26;;;;;;;26.87;14.33;;;0.10;99.90;;;;;;5046679;28;20237;-78
2021/12/22 11:32:53;;;;;;;25.53;12.90;;;0.10;99.90;;;;;;5061199;28;20597;-78
2021/12/22 11:35:20;;;;;;;27.63;15.47;;;0.10;99.90;;;;;;5043037;28;20606;-78
2021/12/22 11:37:46;;;;;;;25.90;12.90;;;0.00;99.90;;;;;;5043088;28;20649;-77
2021/12/22 11:40:16;;;;;;;25.53;14.57;;;0.10;99.90;;;;;;5041981;28;20613;-77
2021/12/22 11:42:42;;;;;;;24.30;14.20;;;0.10;99.90;;;;;;5044584;28;21758;-76
2021/12/22 11:45:23;;;;;;;25.27;14.20;;;0.20;99.90;;;;;;5043197;28;21402;-76
2021/12/22 11:47:52;;;;;;;29.10;16.27;;;0.30;99.90;;;;;;5072181;28;20664;-77
2021/12/22 11:50:30;;;;;;;24.60;15.60;;;0.30;99.90;;;;;;5052780;28;20630;-77
2021/12/22 11:53:08;;;;;;;30.40;14.73;;;0.20;99.90;;;;;;5053606;28;20660;-79
2021/12/22 11:55:37;;;;;;;25.40;14.43;;;0.30;99.90;;;;;;5056464;28;21090;-78
2021/12/22 11:58:24;;;;;;;25.37;13.97;;;0.40;99.90;;;;;;5062745;28;20740;-78
2021/12/22 12:00:50;;;;;;;25.03;13.63;;;0.50;99.90;;;;;;5045101;28;20644;-77
2021/12/22 12:03:41;;;;;;;22.47;14.63;;;0.60;99.90;;;;;;5041920;28;20618;-77
2021/12/22 12:06:11;;;;;;;21.90;12.67;;;0.70;99.90;;;;;;5036660;28;20203;-77
2021/12/22 12:08:48;;;;;;;26.50;15.60;;;0.80;99.90;;;;;;5062268;28;20658;-77
2021/12/22 12:11:22;;;;;;;25.03;13.37;;;1.00;99.90;;;;;;5060910;28;20625;-77
2021/12/22 12:22:07;;;;;;;22.27;14.30;;;1.20;99.90;;;;;;5061046;28;21153;-77
2021/12/22 12:24:53;;;;;;;23.57;14.27;;;1.30;99.90;;;;;;5049210;28;21028;-78
2021/12/22 12:27:36;;;;;;;24.80;15.27;;;1.30;99.90;;;;;;5069515;28;20601;-78
2021/12/22 12:30:10;;;;;;;23.67;15.10;;;1.30;99.90;;;;;;5061643;28;21251;-78
2021/12/22 12:32:39;;;;;;;24.53;15.83;;;1.30;99.90;;;;;;5066510;28;20566;-78
2021/12/22 12:35:23;;;;;;;22.23;15.23;;;1.30;99.90;;;;;;5047310;28;20614;-78
2021/12/22 12:38:17;;;;;;;25.77;14.73;;;1.40;99.90;;;;;;5044747;28;20643;-78
2021/12/22 12:40:55;;;;;;;20.83;14.30;;;1.40;99.90;;;;;;5047775;28;20979;-79
2021/12/22 12:43:42;;;;;;;23.57;13.73;;;1.40;99.90;;;;;;5065505;28;20610;-78
2021/12/22 12:46:35;;;;;;;21.13;14.00;;;1.40;99.90;;;;;;5062848;28;20605;-77
2021/12/22 12:49:07;;;;;;;24.10;14.83;;;1.40;99.90;;;;;;5045645;28;20662;-78
2021/12/22 12:51:54;;;;;;;26.53;14.70;;;1.40;99.90;;;;;;5057965;28;20645;-78
2021/12/22 12:54:25;;;;;;;24.63;15.07;;;1.40;99.90;;;;;;5078885;28;20628;-78
2021/12/22 12:56:58;;;;;;;27.50;17.27;;;1.40;99.90;;;;;;5062332;28;20648;-79
2021/12/22 12:59:50;;;;;;;25.33;14.13;;;1.30;99.90;;;;;;5062650;28;20618;-77
2021/12/22 13:02:24;;;;;;;23.57;14.30;;;1.40;99.90;;;;;;5076237;28;21121;-77
2021/12/22 13:05:11;;;;;;;24.47;15.10;;;1.40;99.90;;;;;;5067190;28;20891;-77
2021/12/22 13:07:40;;;;;;;24.50;14.87;;;1.40;99.90;;;;;;5069425;28;20717;-78
2021/12/22 13:10:21;;;;;;;25.83;16.10;;;1.40;99.90;;;;;;5039619;28;20645;-77
2021/12/22 13:13:01;;;;;;;26.80;15.57;;;1.50;99.90;;;;;;5044369;28;22425;-78